首页
METAR-TAF:

METAR-TAF

机场 :

杰克逊维尔, 佛罗里达州, 美国

纬度: 30-14-03N, 经度: 081-40-29W, 海拔: 6米

当前天气观测

该预报发布于1小时和11分钟前的21:53 UTC
风速7节,风向西南
温度 28°C
湿度 70%
气压 1017 hPa
能見度: 16.1公里
少量云层高于4000英尺
散云层高于7000英尺
多云层高于11000英尺
多云层高于25000英尺

METAR: KNIP 152153Z 22007KT 10SM FEW040 SCT070 BKN110 BKN250 28/22 A3003 RMK AO2 TSE21 SLP165 T1 SET T02830217 $

时间: 19:04 (23:04 UTC)

预报

预报有效从15日的 15点(UTC)到 16日的 15点(UTC)
风速7节,风向西转西南
能见度10公里或以上
少量云层高于3000英尺
散云层高于25000英尺
从 15日的 1800点(UTC)
风速9节,风向
能见度10公里或以上
散云层高于3500英尺, 积雨云.
散云层高于8000英尺
多云层高于25000英尺
附近有雷暴
短暂存在
从 15日的 19点(UTC)到 15日的 23点(UTC)
风速20节,风向多变,有时为35节阵风
能見度: 3200
散云层高于2000英尺
多云层高于4000英尺, 积雨云.
阴天层高于8000英尺
雷暴, 大雨, 轻雾
从 16日的 0000点(UTC)
风速8节,风向
能见度10公里或以上
少量云层高于5500英尺
散云层高于10000英尺
多云层高于25000英尺
从 16日的 1000点(UTC)
风速6节,风向南转西南
能見度: 1626
少量云层高于3000英尺
散云层高于25000英尺

TAF: KNIP 1515/1615 24007KT 9999 FEW030 SCT250 QNH3007INS FM151800 17009KT 9999 VCTS SCT035CB SCT080 BKN250 QNH2997INS TEMPO 1519/1523 VRB20G35KT 3200 +TSRA BR SCT020 BKN040CB OVC080 FM160000 18008KT 9999 FEW055 SCT100 BKN250 QNH2999INS FM161000 21006KT 9999 FEW030 SCT250 QNH3000INS TX34/1519Z TN26/1611Z COR 1626 FN20016

超过4000个机场的气象观测和天气预报(METAR&TAF报告)。

可查询的气象台以黄色和红色小点在地图上表示。

将鼠标移到小点上方,可查看气象台名称。

然后点击查看天气观测和预报。

如需切换地图:点击带黑十字的绿色按钮放大地图;点击带横线的绿色按钮缩小地图;或者点击绿色箭头查看邻近地区的地图。


METAR-TAF: